sensor_id;sensor_type;location;lat;lon;timestamp;pressure;altitude;pressure_sealevel;temperature;humidity
4469;BME280;2247;42.666;23.292;2022-10-23T00:01:18;94878.91;;;15.74;59.09
4469;BME280;2247;42.666;23.292;2022-10-23T00:03:47;94884.38;;;15.83;59.17
4469;BME280;2247;42.666;23.292;2022-10-23T00:06:18;94874.53;;;15.83;59.71
4469;BME280;2247;42.666;23.292;2022-10-23T00:08:45;94880.69;;;15.79;59.51
4469;BME280;2247;42.666;23.292;2022-10-23T00:11:14;94877.47;;;15.82;59.58
4469;BME280;2247;42.666;23.292;2022-10-23T00:13:41;94874.03;;;15.81;59.99
4469;BME280;2247;42.666;23.292;2022-10-23T00:16:08;94875.66;;;15.77;60.90
4469;BME280;2247;42.666;23.292;2022-10-23T00:18:36;94874.03;;;15.81;60.73
4469;BME280;2247;42.666;23.292;2022-10-23T00:21:02;94859.56;;;15.87;61.24
4469;BME280;2247;42.666;23.292;2022-10-23T00:23:31;94847.41;;;15.67;58.68
4469;BME280;2247;42.666;23.292;2022-10-23T00:25:58;94842.78;;;15.73;58.72
4469;BME280;2247;42.666;23.292;2022-10-23T00:28:25;94861.31;;;15.78;58.38
4469;BME280;2247;42.666;23.292;2022-10-23T00:30:52;94857.16;;;15.72;58.52
4469;BME280;2247;42.666;23.292;2022-10-23T00:33:19;94858.03;;;15.67;59.88
4469;BME280;2247;42.666;23.292;2022-10-23T00:35:46;94867.44;;;15.60;58.70
4469;BME280;2247;42.666;23.292;2022-10-23T00:38:13;94873.47;;;15.65;60.18
4469;BME280;2247;42.666;23.292;2022-10-23T00:40:41;94876.22;;;15.60;61.05
4469;BME280;2247;42.666;23.292;2022-10-23T00:43:16;94873.47;;;15.65;61.15
4469;BME280;2247;42.666;23.292;2022-10-23T00:45:43;94871.22;;;15.72;60.67
4469;BME280;2247;42.666;23.292;2022-10-23T00:48:11;94863.97;;;15.78;60.90
4469;BME280;2247;42.666;23.292;2022-10-23T00:50:39;94851.19;;;15.80;60.23
4469;BME280;2247;42.666;23.292;2022-10-23T00:53:06;94856.81;;;15.92;58.36
4469;BME280;2247;42.666;23.292;2022-10-23T00:55:34;94848.13;;;15.87;58.16
4469;BME280;2247;42.666;23.292;2022-10-23T00:58:04;94855.91;;;15.83;58.32
4469;BME280;2247;42.666;23.292;2022-10-23T01:00:42;94859.31;;;15.70;58.80
4469;BME280;2247;42.666;23.292;2022-10-23T01:03:09;94846.75;;;15.75;58.58
4469;BME280;2247;42.666;23.292;2022-10-23T01:05:41;94840.69;;;15.70;59.30
4469;BME280;2247;42.666;23.292;2022-10-23T01:08:17;94830.41;;;15.82;58.36
4469;BME280;2247;42.666;23.292;2022-10-23T01:10:51;94832.94;;;15.73;58.75
4469;BME280;2247;42.666;23.292;2022-10-23T01:13:28;94835.22;;;15.80;58.77
4469;BME280;2247;42.666;23.292;2022-10-23T01:16:05;94843.50;;;15.79;58.04
4469;BME280;2247;42.666;23.292;2022-10-23T01:18:39;94861.09;;;15.74;57.81
4469;BME280;2247;42.666;23.292;2022-10-23T01:21:11;94869.69;;;15.53;59.08
4469;BME280;2247;42.666;23.292;2022-10-23T01:23:51;94892.56;;;15.30;59.40
4469;BME280;2247;42.666;23.292;2022-10-23T01:26:46;94894.19;;;14.88;61.14
4469;BME280;2247;42.666;23.292;2022-10-23T01:29:21;94897.91;;;14.87;61.26
4469;BME280;2247;42.666;23.292;2022-10-23T01:31:55;94921.13;;;14.77;62.37
4469;BME280;2247;42.666;23.292;2022-10-23T01:34:28;94944.19;;;14.52;62.59
4469;BME280;2247;42.666;23.292;2022-10-23T01:36:58;94945.28;;;14.17;63.95
4469;BME280;2247;42.666;23.292;2022-10-23T01:39:33;94951.03;;;14.01;64.70
4469;BME280;2247;42.666;23.292;2022-10-23T01:42:04;94950.75;;;14.02;65.20
4469;BME280;2247;42.666;23.292;2022-10-23T01:44:37;94948.09;;;13.68;66.06
4469;BME280;2247;42.666;23.292;2022-10-23T01:47:07;94956.50;;;13.36;67.14
4469;BME280;2247;42.666;23.292;2022-10-23T01:49:36;94956.88;;;13.15;67.84
4469;BME280;2247;42.666;23.292;2022-10-23T01:52:06;94942.31;;;13.07;68.57
4469;BME280;2247;42.666;23.292;2022-10-23T01:54:37;94926.72;;;13.11;68.50
4469;BME280;2247;42.666;23.292;2022-10-23T01:57:07;94925.69;;;13.07;68.62
4469;BME280;2247;42.666;23.292;2022-10-23T01:59:41;94912.94;;;13.09;68.27
4469;BME280;2247;42.666;23.292;2022-10-23T02:02:10;94918.78;;;13.11;68.07
4469;BME280;2247;42.666;23.292;2022-10-23T02:04:45;94916.34;;;13.24;68.28
4469;BME280;2247;42.666;23.292;2022-10-23T02:07:14;94921.28;;;13.41;67.38
4469;BME280;2247;42.666;23.292;2022-10-23T02:09:41;94933.38;;;13.52;66.29
4469;BME280;2247;42.666;23.292;2022-10-23T02:12:11;94931.97;;;13.65;66.56
4469;BME280;2247;42.666;23.292;2022-10-23T02:14:45;94937.22;;;13.70;65.43
4469;BME280;2247;42.666;23.292;2022-10-23T02:17:20;94936.09;;;13.81;65.11
4469;BME280;2247;42.666;23.292;2022-10-23T02:19:56;94948.81;;;13.79;65.77
4469;BME280;2247;42.666;23.292;2022-10-23T02:22:27;94965.00;;;13.72;65.90
4469;BME280;2247;42.666;23.292;2022-10-23T02:24:58;94963.47;;;13.66;65.65
4469;BME280;2247;42.666;23.292;2022-10-23T02:27:31;94966.13;;;13.66;65.89
4469;BME280;2247;42.666;23.292;2022-10-23T02:30:04;94959.03;;;13.96;64.58
4469;BME280;2247;42.666;23.292;2022-10-23T02:32:32;94963.63;;;14.14;63.85
4469;BME280;2247;42.666;23.292;2022-10-23T02:35:00;94965.41;;;14.24;63.48
4469;BME280;2247;42.666;23.292;2022-10-23T02:37:27;94964.63;;;14.23;63.02
4469;BME280;2247;42.666;23.292;2022-10-23T02:39:54;94953.97;;;14.28;63.09
4469;BME280;2247;42.666;23.292;2022-10-23T02:42:25;94955.28;;;14.31;63.29
4469;BME280;2247;42.666;23.292;2022-10-23T02:45:01;94948.81;;;14.42;62.92
4469;BME280;2247;42.666;23.292;2022-10-23T02:47:42;94939.28;;;14.41;61.73
4469;BME280;2247;42.666;23.292;2022-10-23T02:50:17;94951.88;;;14.54;63.13
4469;BME280;2247;42.666;23.292;2022-10-23T02:52:54;94950.75;;;14.60;62.36
4469;BME280;2247;42.666;23.292;2022-10-23T02:55:32;94954.88;;;14.71;62.17
4469;BME280;2247;42.666;23.292;2022-10-23T02:58:06;94957.47;;;14.76;62.50
4469;BME280;2247;42.666;23.292;2022-10-23T03:00:37;94957.13;;;14.83;62.95
4469;BME280;2247;42.666;23.292;2022-10-23T03:03:10;94948.13;;;14.84;63.65
4469;BME280;2247;42.666;23.292;2022-10-23T03:05:40;94960.75;;;14.92;63.32
4469;BME280;2247;42.666;23.292;2022-10-23T03:08:11;94965.22;;;14.96;62.89
4469;BME280;2247;42.666;23.292;2022-10-23T03:10:39;94967.00;;;15.01;63.15
4469;BME280;2247;42.666;23.292;2022-10-23T03:13:07;94967.75;;;15.07;62.26
4469;BME280;2247;42.666;23.292;2022-10-23T03:15:35;94967.69;;;15.12;62.06
4469;BME280;2247;42.666;23.292;2022-10-23T03:18:01;94964.09;;;15.21;60.96
4469;BME280;2247;42.666;23.292;2022-10-23T03:20:30;94961.75;;;15.20;61.20
4469;BME280;2247;42.666;23.292;2022-10-23T03:22:57;94967.84;;;15.20;62.19
4469;BME280;2247;42.666;23.292;2022-10-23T03:25:23;94963.59;;;15.19;62.04
4469;BME280;2247;42.666;23.292;2022-10-23T03:27:51;94970.00;;;15.18;62.04
4469;BME280;2247;42.666;23.292;2022-10-23T03:30:18;94969.41;;;15.21;61.63
4469;BME280;2247;42.666;23.292;2022-10-23T03:32:45;94969.09;;;15.28;61.34
4469;BME280;2247;42.666;23.292;2022-10-23T03:35:11;94979.91;;;15.31;60.94
4469;BME280;2247;42.666;23.292;2022-10-23T03:37:43;94978.84;;;15.32;61.13
4469;BME280;2247;42.666;23.292;2022-10-23T03:40:10;94987.09;;;15.31;60.57
4469;BME280;2247;42.666;23.292;2022-10-23T03:42:37;94984.66;;;15.34;61.75
4469;BME280;2247;42.666;23.292;2022-10-23T03:45:05;94988.66;;;15.32;62.05
4469;BME280;2247;42.666;23.292;2022-10-23T03:47:31;94984.50;;;15.26;62.51
4469;BME280;2247;42.666;23.292;2022-10-23T03:49:59;94988.75;;;15.27;61.34
4469;BME280;2247;42.666;23.292;2022-10-23T03:52:26;94994.25;;;15.30;60.47
4469;BME280;2247;42.666;23.292;2022-10-23T03:54:54;94993.69;;;15.33;60.12
4469;BME280;2247;42.666;23.292;2022-10-23T03:57:21;94997.34;;;15.37;59.95
4469;BME280;2247;42.666;23.292;2022-10-23T03:59:48;95000.44;;;15.45;60.37
4469;BME280;2247;42.666;23.292;2022-10-23T04:02:15;95008.50;;;15.40;59.80
4469;BME280;2247;42.666;23.292;2022-10-23T04:04:42;95009.84;;;15.37;60.10
4469;BME280;2247;42.666;23.292;2022-10-23T04:07:09;95008.94;;;15.47;59.25
4469;BME280;2247;42.666;23.292;2022-10-23T04:09:37;95013.34;;;15.56;57.31
4469;BME280;2247;42.666;23.292;2022-10-23T04:12:05;95002.50;;;15.53;58.09
4469;BME280;2247;42.666;23.292;2022-10-23T04:14:34;95011.00;;;15.55;57.67
4469;BME280;2247;42.666;23.292;2022-10-23T04:17:00;94998.78;;;15.54;57.12
4469;BME280;2247;42.666;23.292;2022-10-23T04:19:28;95007.75;;;15.58;56.86
4469;BME280;2247;42.666;23.292;2022-10-23T04:21:55;94999.22;;;15.61;55.51
4469;BME280;2247;42.666;23.292;2022-10-23T04:24:22;94992.59;;;15.58;55.94
4469;BME280;2247;42.666;23.292;2022-10-23T04:26:50;94998.78;;;15.54;55.85
4469;BME280;2247;42.666;23.292;2022-10-23T04:29:19;94993.72;;;15.52;56.29
4469;BME280;2247;42.666;23.292;2022-10-23T04:31:49;95000.66;;;15.53;56.04
4469;BME280;2247;42.666;23.292;2022-10-23T04:34:17;94999.84;;;15.53;55.04
4469;BME280;2247;42.666;23.292;2022-10-23T04:36:44;94995.53;;;15.57;55.13
4469;BME280;2247;42.666;23.292;2022-10-23T04:39:12;94996.13;;;15.54;55.25
4469;BME280;2247;42.666;23.292;2022-10-23T04:41:39;94991.88;;;15.53;54.26
4469;BME280;2247;42.666;23.292;2022-10-23T04:44:07;94992.88;;;15.57;55.63
4469;BME280;2247;42.666;23.292;2022-10-23T04:46:36;94989.94;;;15.58;54.60
4469;BME280;2247;42.666;23.292;2022-10-23T04:49:03;94991.53;;;15.59;53.95
4469;BME280;2247;42.666;23.292;2022-10-23T04:51:30;95001.47;;;15.49;51.98
4469;BME280;2247;42.666;23.292;2022-10-23T04:53:57;94994.69;;;15.61;51.64
4469;BME280;2247;42.666;23.292;2022-10-23T04:56:24;95001.78;;;15.66;52.05
4469;BME280;2247;42.666;23.292;2022-10-23T04:58:51;94997.13;;;15.76;51.74
4469;BME280;2247;42.666;23.292;2022-10-23T05:01:19;95002.09;;;15.83;50.96
4469;BME280;2247;42.666;23.292;2022-10-23T05:03:47;95002.16;;;15.78;50.41
4469;BME280;2247;42.666;23.292;2022-10-23T05:06:14;95013.16;;;15.90;50.51
4469;BME280;2247;42.666;23.292;2022-10-23T05:08:41;95012.78;;;15.97;49.90
4469;BME280;2247;42.666;23.292;2022-10-23T05:11:08;95021.97;;;16.04;50.24
4469;BME280;2247;42.666;23.292;2022-10-23T05:13:34;95018.66;;;16.12;50.58
4469;BME280;2247;42.666;23.292;2022-10-23T05:16:02;95016.69;;;16.18;51.24
4469;BME280;2247;42.666;23.292;2022-10-23T05:18:32;95025.50;;;16.32;51.74
4469;BME280;2247;42.666;23.292;2022-10-23T05:21:05;95018.47;;;16.41;50.50
4469;BME280;2247;42.666;23.292;2022-10-23T05:23:33;95018.31;;;16.51;49.81
4469;BME280;2247;42.666;23.292;2022-10-23T05:26:03;95021.50;;;16.67;50.42
4469;BME280;2247;42.666;23.292;2022-10-23T05:28:30;95025.78;;;16.82;50.92
4469;BME280;2247;42.666;23.292;2022-10-23T05:30:59;95031.44;;;16.94;50.46
4469;BME280;2247;42.666;23.292;2022-10-23T05:33:27;95037.34;;;17.05;49.64
4469;BME280;2247;42.666;23.292;2022-10-23T05:35:55;95043.06;;;17.12;50.18
4469;BME280;2247;42.666;23.292;2022-10-23T05:38:25;95049.97;;;17.26;50.42
4469;BME280;2247;42.666;23.292;2022-10-23T05:40:54;95068.13;;;17.24;50.61
4469;BME280;2247;42.666;23.292;2022-10-23T05:43:21;95058.94;;;17.30;51.18
4469;BME280;2247;42.666;23.292;2022-10-23T05:45:50;95067.22;;;17.29;51.71
4469;BME280;2247;42.666;23.292;2022-10-23T05:48:17;95072.06;;;17.13;51.74
4469;BME280;2247;42.666;23.292;2022-10-23T05:50:45;95072.16;;;17.08;52.83
4469;BME280;2247;42.666;23.292;2022-10-23T05:53:12;95074.41;;;17.01;52.95
4469;BME280;2247;42.666;23.292;2022-10-23T05:55:41;95067.41;;;16.91;53.60
4469;BME280;2247;42.666;23.292;2022-10-23T05:58:07;95076.22;;;17.06;53.98
4469;BME280;2247;42.666;23.292;2022-10-23T06:00:36;95091.59;;;17.09;54.02
4469;BME280;2247;42.666;23.292;2022-10-23T06:03:03;95095.84;;;17.10;55.78
4469;BME280;2247;42.666;23.292;2022-10-23T06:05:29;95106.53;;;17.37;56.14
4469;BME280;2247;42.666;23.292;2022-10-23T06:07:57;95110.00;;;17.65;55.76
4469;BME280;2247;42.666;23.292;2022-10-23T06:10:24;95099.03;;;17.80;55.84
4469;BME280;2247;42.666;23.292;2022-10-23T06:12:53;95097.66;;;17.83;56.19
4469;BME280;2247;42.666;23.292;2022-10-23T06:15:20;95095.00;;;17.83;56.21
4469;BME280;2247;42.666;23.292;2022-10-23T06:17:47;95090.88;;;17.77;57.11
4469;BME280;2247;42.666;23.292;2022-10-23T06:20:14;95102.69;;;17.70;58.48
4469;BME280;2247;42.666;23.292;2022-10-23T06:22:41;95107.22;;;17.56;59.33
4469;BME280;2247;42.666;23.292;2022-10-23T06:25:08;95115.41;;;17.60;59.36
4469;BME280;2247;42.666;23.292;2022-10-23T06:27:35;95118.38;;;17.45;60.51
4469;BME280;2247;42.666;23.292;2022-10-23T06:30:04;95121.31;;;17.29;61.71
4469;BME280;2247;42.666;23.292;2022-10-23T06:32:32;95120.50;;;17.29;61.50
4469;BME280;2247;42.666;23.292;2022-10-23T06:34:58;95119.38;;;17.35;62.22
4469;BME280;2247;42.666;23.292;2022-10-23T06:37:25;95118.25;;;17.36;61.84
4469;BME280;2247;42.666;23.292;2022-10-23T06:39:52;95117.16;;;17.23;62.02
4469;BME280;2247;42.666;23.292;2022-10-23T06:42:19;95116.31;;;17.28;62.17
4469;BME280;2247;42.666;23.292;2022-10-23T06:44:46;95138.31;;;17.33;62.91
4469;BME280;2247;42.666;23.292;2022-10-23T06:47:14;95126.50;;;17.67;61.60
4469;BME280;2247;42.666;23.292;2022-10-23T06:49:41;95126.78;;;17.79;61.09
4469;BME280;2247;42.666;23.292;2022-10-23T06:52:08;95128.25;;;17.99;60.72
4469;BME280;2247;42.666;23.292;2022-10-23T06:54:35;95130.88;;;18.13;60.09
4469;BME280;2247;42.666;23.292;2022-10-23T06:57:02;95134.41;;;18.35;59.58
4469;BME280;2247;42.666;23.292;2022-10-23T06:59:29;95131.81;;;18.44;59.31
4469;BME280;2247;42.666;23.292;2022-10-23T07:01:56;95131.09;;;18.52;59.10
4469;BME280;2247;42.666;23.292;2022-10-23T07:04:26;95122.09;;;18.62;58.07
4469;BME280;2247;42.666;23.292;2022-10-23T07:06:54;95129.75;;;18.77;57.78
4469;BME280;2247;42.666;23.292;2022-10-23T07:09:22;95136.41;;;18.88;57.39
4469;BME280;2247;42.666;23.292;2022-10-23T07:11:49;95136.88;;;19.12;56.80
4469;BME280;2247;42.666;23.292;2022-10-23T07:14:21;95139.72;;;19.16;56.20
4469;BME280;2247;42.666;23.292;2022-10-23T07:16:47;95127.03;;;19.21;56.33
4469;BME280;2247;42.666;23.292;2022-10-23T07:19:14;95133.34;;;19.25;56.19
4469;BME280;2247;42.666;23.292;2022-10-23T07:21:42;95127.88;;;19.31;55.91
4469;BME280;2247;42.666;23.292;2022-10-23T07:24:10;95121.41;;;19.32;55.65
4469;BME280;2247;42.666;23.292;2022-10-23T07:26:37;95130.81;;;19.20;55.59
4469;BME280;2247;42.666;23.292;2022-10-23T07:29:04;95126.91;;;19.26;55.75
4469;BME280;2247;42.666;23.292;2022-10-23T07:31:32;95136.03;;;19.25;55.73
4469;BME280;2247;42.666;23.292;2022-10-23T07:33:59;95138.13;;;19.37;55.82
4469;BME280;2247;42.666;23.292;2022-10-23T07:36:26;95119.53;;;19.32;55.17
4469;BME280;2247;42.666;23.292;2022-10-23T07:38:54;95116.91;;;19.41;54.60
4469;BME280;2247;42.666;23.292;2022-10-23T07:41:21;95125.25;;;19.39;54.52
4469;BME280;2247;42.666;23.292;2022-10-23T07:43:48;95128.28;;;19.46;54.55
4469;BME280;2247;42.666;23.292;2022-10-23T07:46:15;95120.31;;;19.55;54.15
4469;BME280;2247;42.666;23.292;2022-10-23T07:48:41;95119.72;;;19.66;54.29
4469;BME280;2247;42.666;23.292;2022-10-23T07:51:11;95115.03;;;19.81;53.37
4469;BME280;2247;42.666;23.292;2022-10-23T07:53:38;95117.75;;;19.89;53.06
4469;BME280;2247;42.666;23.292;2022-10-23T07:56:13;95114.91;;;19.94;52.12
4469;BME280;2247;42.666;23.292;2022-10-23T07:58:40;95118.22;;;19.91;52.47
4469;BME280;2247;42.666;23.292;2022-10-23T08:01:15;95120.13;;;19.91;51.87
4469;BME280;2247;42.666;23.292;2022-10-23T08:03:43;95119.78;;;19.92;51.86
4469;BME280;2247;42.666;23.292;2022-10-23T08:06:09;95119.94;;;19.87;51.63
4469;BME280;2247;42.666;23.292;2022-10-23T08:08:36;95125.25;;;19.79;51.87
4469;BME280;2247;42.666;23.292;2022-10-23T08:11:04;95123.53;;;19.74;52.10
4469;BME280;2247;42.666;23.292;2022-10-23T08:13:32;95127.13;;;19.78;52.45
4469;BME280;2247;42.666;23.292;2022-10-23T08:15:59;95133.47;;;19.82;52.60
4469;BME280;2247;42.666;23.292;2022-10-23T08:18:27;95137.22;;;19.81;53.03
4469;BME280;2247;42.666;23.292;2022-10-23T08:20:59;95130.00;;;19.82;52.28
4469;BME280;2247;42.666;23.292;2022-10-23T08:23:27;95127.47;;;19.77;52.32
4469;BME280;2247;42.666;23.292;2022-10-23T08:25:56;95130.44;;;19.75;52.14
4469;BME280;2247;42.666;23.292;2022-10-23T08:28:24;95129.38;;;19.85;52.22
4469;BME280;2247;42.666;23.292;2022-10-23T08:30:53;95134.28;;;19.91;51.91
4469;BME280;2247;42.666;23.292;2022-10-23T08:33:22;95126.56;;;19.98;51.92
4469;BME280;2247;42.666;23.292;2022-10-23T08:35:49;95122.63;;;19.96;51.98
4469;BME280;2247;42.666;23.292;2022-10-23T08:38:16;95113.34;;;19.93;51.50
4469;BME280;2247;42.666;23.292;2022-10-23T08:40:44;95125.63;;;19.94;52.10
4469;BME280;2247;42.666;23.292;2022-10-23T08:43:14;95124.53;;;19.95;52.18
4469;BME280;2247;42.666;23.292;2022-10-23T08:45:47;95116.84;;;20.02;52.27
4469;BME280;2247;42.666;23.292;2022-10-23T08:48:19;95126.09;;;19.96;52.35
4469;BME280;2247;42.666;23.292;2022-10-23T08:50:51;95139.19;;;19.98;52.84
4469;BME280;2247;42.666;23.292;2022-10-23T08:53:25;95131.16;;;20.06;52.60
4469;BME280;2247;42.666;23.292;2022-10-23T08:56:00;95126.47;;;20.12;52.34
4469;BME280;2247;42.666;23.292;2022-10-23T08:58:34;95120.66;;;20.19;51.94
4469;BME280;2247;42.666;23.292;2022-10-23T09:01:22;95122.38;;;20.23;51.89
4469;BME280;2247;42.666;23.292;2022-10-23T09:03:58;95131.34;;;20.27;52.41
4469;BME280;2247;42.666;23.292;2022-10-23T09:06:33;95126.47;;;20.29;51.62
4469;BME280;2247;42.666;23.292;2022-10-23T09:09:14;95130.88;;;20.25;51.56
4469;BME280;2247;42.666;23.292;2022-10-23T09:11:50;95122.53;;;20.18;51.91
4469;BME280;2247;42.666;23.292;2022-10-23T09:14:33;95126.94;;;20.23;51.64
4469;BME280;2247;42.666;23.292;2022-10-23T09:17:12;95125.03;;;20.15;51.83
4469;BME280;2247;42.666;23.292;2022-10-23T09:19:44;95121.56;;;20.14;51.47
4469;BME280;2247;42.666;23.292;2022-10-23T09:22:11;95117.78;;;20.06;52.15
4469;BME280;2247;42.666;23.292;2022-10-23T09:24:41;95110.34;;;19.95;52.46
4469;BME280;2247;42.666;23.292;2022-10-23T09:27:13;95116.50;;;19.95;52.50
4469;BME280;2247;42.666;23.292;2022-10-23T09:29:47;95114.31;;;19.97;52.95
4469;BME280;2247;42.666;23.292;2022-10-23T09:32:14;95114.63;;;19.96;52.92
4469;BME280;2247;42.666;23.292;2022-10-23T09:34:51;95108.81;;;20.02;52.71
4469;BME280;2247;42.666;23.292;2022-10-23T09:37:21;95105.34;;;20.02;52.06
4469;BME280;2247;42.666;23.292;2022-10-23T09:39:59;95102.50;;;20.07;52.19
4469;BME280;2247;42.666;23.292;2022-10-23T09:42:27;95103.94;;;20.04;52.56
4469;BME280;2247;42.666;23.292;2022-10-23T09:44:55;95099.03;;;20.06;52.69
4469;BME280;2247;42.666;23.292;2022-10-23T09:47:23;95105.81;;;20.04;52.33
4469;BME280;2247;42.666;23.292;2022-10-23T09:49:55;95100.00;;;20.11;52.19
4469;BME280;2247;42.666;23.292;2022-10-23T09:52:24;95099.84;;;20.16;52.00
4469;BME280;2247;42.666;23.292;2022-10-23T09:54:57;95096.06;;;20.17;51.82
4469;BME280;2247;42.666;23.292;2022-10-23T09:57:28;95098.13;;;20.11;50.73
4469;BME280;2247;42.666;23.292;2022-10-23T09:59:58;95092.59;;;20.08;50.95
4469;BME280;2247;42.666;23.292;2022-10-23T10:02:28;95068.66;;;20.02;49.70
4469;BME280;2247;42.666;23.292;2022-10-23T10:04:58;95094.03;;;20.05;49.91
4469;BME280;2247;42.666;23.292;2022-10-23T10:07:26;95086.13;;;20.00;50.09
4469;BME280;2247;42.666;23.292;2022-10-23T10:09:54;95083.94;;;20.02;49.75
4469;BME280;2247;42.666;23.292;2022-10-23T10:12:33;95087.41;;;20.02;49.37
4469;BME280;2247;42.666;23.292;2022-10-23T10:15:14;95087.72;;;20.10;49.91
4469;BME280;2247;42.666;23.292;2022-10-23T10:17:49;95078.91;;;20.18;50.16
4469;BME280;2247;42.666;23.292;2022-10-23T10:20:38;95079.53;;;20.23;50.00
4469;BME280;2247;42.666;23.292;2022-10-23T10:23:15;95074.66;;;20.17;48.46
4469;BME280;2247;42.666;23.292;2022-10-23T10:25:51;95065.06;;;20.16;48.02
4469;BME280;2247;42.666;23.292;2022-10-23T10:28:30;95077.34;;;20.17;48.04
4469;BME280;2247;42.666;23.292;2022-10-23T10:31:10;95077.19;;;20.22;48.29
4469;BME280;2247;42.666;23.292;2022-10-23T10:33:48;95079.25;;;20.33;47.34
4469;BME280;2247;42.666;23.292;2022-10-23T10:36:29;95069.94;;;20.22;47.30
4469;BME280;2247;42.666;23.292;2022-10-23T10:39:01;95066.78;;;20.20;47.40
4469;BME280;2247;42.666;23.292;2022-10-23T10:41:45;95066.16;;;20.23;47.64
4469;BME280;2247;42.666;23.292;2022-10-23T10:44:45;95060.31;;;20.21;46.65
4469;BME280;2247;42.666;23.292;2022-10-23T10:47:20;95061.91;;;20.22;45.68
4469;BME280;2247;42.666;23.292;2022-10-23T10:49:57;95064.28;;;20.24;45.48
4469;BME280;2247;42.666;23.292;2022-10-23T10:52:32;95051.38;;;20.26;45.76
4469;BME280;2247;42.666;23.292;2022-10-23T10:55:13;95056.56;;;20.22;46.49
4469;BME280;2247;42.666;23.292;2022-10-23T10:57:45;95044.94;;;20.35;46.43
4469;BME280;2247;42.666;23.292;2022-10-23T11:00:15;95042.72;;;20.37;46.30
4469;BME280;2247;42.666;23.292;2022-10-23T11:02:45;95046.97;;;20.47;46.41
4469;BME280;2247;42.666;23.292;2022-10-23T11:05:19;95049.81;;;20.42;45.45
4469;BME280;2247;42.666;23.292;2022-10-23T11:07:54;95043.97;;;20.40;44.12
4469;BME280;2247;42.666;23.292;2022-10-23T11:10:23;95041.16;;;20.36;43.92
4469;BME280;2247;42.666;23.292;2022-10-23T11:12:50;95044.94;;;20.35;43.72
4469;BME280;2247;42.666;23.292;2022-10-23T11:15:20;95041.00;;;20.33;44.59
4469;BME280;2247;42.666;23.292;2022-10-23T11:17:54;95037.50;;;20.32;45.03
4469;BME280;2247;42.666;23.292;2022-10-23T11:20:49;95037.22;;;20.34;45.29
4469;BME280;2247;42.666;23.292;2022-10-23T11:23:34;95030.44;;;20.36;45.59
4469;BME280;2247;42.666;23.292;2022-10-23T11:26:16;95029.47;;;20.41;45.33
4469;BME280;2247;42.666;23.292;2022-10-23T11:29:08;95016.56;;;20.43;45.42
4469;BME280;2247;42.666;23.292;2022-10-23T11:31:44;95014.69;;;20.43;46.04
4469;BME280;2247;42.666;23.292;2022-10-23T11:34:42;95020.19;;;20.47;45.98
4469;BME280;2247;42.666;23.292;2022-10-23T11:37:15;94996.41;;;20.46;46.29
4469;BME280;2247;42.666;23.292;2022-10-23T11:40:02;95007.09;;;20.54;46.46
4469;BME280;2247;42.666;23.292;2022-10-23T11:42:46;94995.59;;;20.62;46.01
4469;BME280;2247;42.666;23.292;2022-10-23T11:45:40;94997.50;;;20.53;45.93
4469;BME280;2247;42.666;23.292;2022-10-23T11:48:21;94994.34;;;20.51;46.13
4469;BME280;2247;42.666;23.292;2022-10-23T11:50:51;94986.31;;;20.51;46.35
4469;BME280;2247;42.666;23.292;2022-10-23T11:53:25;94992.16;;;20.53;46.37
4469;BME280;2247;42.666;23.292;2022-10-23T11:55:59;94984.91;;;20.54;45.99
4469;BME280;2247;42.666;23.292;2022-10-23T11:58:27;94990.56;;;20.52;46.36
4469;BME280;2247;42.666;23.292;2022-10-23T12:01:00;94981.44;;;20.53;46.45
4469;BME280;2247;42.666;23.292;2022-10-23T12:03:37;94996.38;;;20.54;46.20
4469;BME280;2247;42.666;23.292;2022-10-23T12:06:05;94985.22;;;20.52;46.00
4469;BME280;2247;42.666;23.292;2022-10-23T12:08:41;94994.50;;;20.55;46.06
4469;BME280;2247;42.666;23.292;2022-10-23T12:14:24;94981.28;;;20.50;45.73
4469;BME280;2247;42.666;23.292;2022-10-23T12:16:51;94979.22;;;20.55;45.60
4469;BME280;2247;42.666;23.292;2022-10-23T12:19:21;94979.22;;;20.55;45.70
4469;BME280;2247;42.666;23.292;2022-10-23T12:21:50;94977.63;;;20.54;45.82
4469;BME280;2247;42.666;23.292;2022-10-23T12:27:17;94963.16;;;20.55;44.39
4469;BME280;2247;42.666;23.292;2022-10-23T12:30:21;94978.13;;;20.48;44.67
4469;BME280;2247;42.666;23.292;2022-10-23T12:33:01;94973.72;;;20.43;44.89
4469;BME280;2247;42.666;23.292;2022-10-23T12:38:31;94975.00;;;20.46;44.91
4469;BME280;2247;42.666;23.292;2022-10-23T12:41:02;94971.97;;;20.47;45.04
4469;BME280;2247;42.666;23.292;2022-10-23T12:43:33;94975.91;;;20.50;44.91
4469;BME280;2247;42.666;23.292;2022-10-23T12:46:14;94974.50;;;20.52;45.00
4469;BME280;2247;42.666;23.292;2022-10-23T12:48:47;94966.63;;;20.47;44.80
4469;BME280;2247;42.666;23.292;2022-10-23T12:51:21;94976.72;;;20.41;44.62
4469;BME280;2247;42.666;23.292;2022-10-23T12:53:49;94967.28;;;20.44;44.91
4469;BME280;2247;42.666;23.292;2022-10-23T12:56:16;94972.31;;;20.46;45.32
4469;BME280;2247;42.666;23.292;2022-10-23T12:58:47;94980.00;;;20.47;45.32
4469;BME280;2247;42.666;23.292;2022-10-23T13:01:24;94981.59;;;20.48;45.32
4469;BME280;2247;42.666;23.292;2022-10-23T13:03:56;94972.63;;;20.44;45.46
4469;BME280;2247;42.666;23.292;2022-10-23T13:06:24;94984.91;;;20.45;45.83
4469;BME280;2247;42.666;23.292;2022-10-23T13:08:52;94982.06;;;20.50;45.82
4469;BME280;2247;42.666;23.292;2022-10-23T13:11:20;94987.44;;;20.50;45.83
4469;BME280;2247;42.666;23.292;2022-10-23T13:13:47;94983.16;;;20.58;45.70
4469;BME280;2247;42.666;23.292;2022-10-23T13:16:16;94991.00;;;20.71;45.31
4469;BME280;2247;42.666;23.292;2022-10-23T13:18:51;94986.75;;;20.70;45.13
4469;BME280;2247;42.666;23.292;2022-10-23T13:21:20;94977.75;;;20.75;45.52
4469;BME280;2247;42.666;23.292;2022-10-23T13:23:47;94981.38;;;20.70;45.59
4469;BME280;2247;42.666;23.292;2022-10-23T13:26:29;94986.13;;;20.73;45.65
4469;BME280;2247;42.666;23.292;2022-10-23T13:28:56;94981.38;;;20.70;45.55
4469;BME280;2247;42.666;23.292;2022-10-23T13:31:26;94992.72;;;20.76;45.64
4469;BME280;2247;42.666;23.292;2022-10-23T13:34:23;94986.44;;;20.72;46.41
4469;BME280;2247;42.666;23.292;2022-10-23T13:36:53;94986.56;;;20.75;45.22
4469;BME280;2247;42.666;23.292;2022-10-23T13:39:27;94986.25;;;20.77;45.24